Time;durP1;ratioP1;P1;durP2;ratioP2;P2;SDS_P1;SDS_P2;PMS_P1;PMS_P2;Temp;Humidity;BMP_temperature;BMP_pressure;BME280_temperature;BME280_humidity;BME280_pressure;Samples;Min_cycle;Max_cycle;Signal;HPM_P1;HPM_P2
2023/07/13 00:01:49;;;;;;;10.25;5.07;;;;;;;28.82;54.77;99006.50;5072679;28;20224;-86
2023/07/13 00:04:17;;;;;;;8.52;5.47;;;;;;;28.80;55.05;99011.25;5060514;28;20192;-85
2023/07/13 00:06:44;;;;;;;14.20;5.95;;;;;;;28.80;55.19;99014.75;5053720;28;20173;-86
2023/07/13 00:09:12;;;;;;;10.48;5.88;;;;;;;28.80;55.44;99016.66;5052695;28;20651;-86
2023/07/13 00:11:38;;;;;;;10.88;6.32;;;;;;;28.75;55.50;99013.72;5052673;28;20182;-86
2023/07/13 00:14:03;;;;;;;11.90;5.07;;;;;;;28.70;55.27;99008.91;5053549;28;20193;-85
2023/07/13 00:16:29;;;;;;;13.70;5.68;;;;;;;28.70;55.59;98999.97;5053733;28;20260;-86
2023/07/13 00:18:54;;;;;;;10.40;5.75;;;;;;;28.66;56.02;99006.81;5053498;28;20188;-86
2023/07/13 00:21:19;;;;;;;12.80;6.05;;;;;;;28.57;55.88;99006.94;5052326;28;20312;-85
2023/07/13 00:23:46;;;;;;;9.25;5.53;;;;;;;28.49;56.40;99001.69;5067795;28;20215;-86
2023/07/13 00:26:13;;;;;;;9.02;4.90;;;;;;;28.43;56.15;99001.66;5073477;28;20181;-86
2023/07/13 00:28:39;;;;;;;7.95;4.97;;;;;;;28.43;56.50;98996.28;5073395;28;20679;-85
2023/07/13 00:31:05;;;;;;;11.85;6.63;;;;;;;28.42;56.59;98997.28;5073225;28;20180;-86
2023/07/13 00:33:31;;;;;;;8.68;6.05;;;;;;;28.41;56.18;98995.63;5073160;28;20184;-86
2023/07/13 00:35:57;;;;;;;11.07;5.43;;;;;;;28.33;56.50;98993.91;5073295;28;20200;-86
2023/07/13 00:38:23;;;;;;;8.95;6.10;;;;;;;28.32;56.61;99002.22;5073137;28;20611;-86
2023/07/13 00:40:48;;;;;;;11.00;6.38;;;;;;;28.31;56.34;99003.22;5073487;28;20242;-86
2023/07/13 00:43:17;;;;;;;11.02;6.47;;;;;;;28.29;57.07;98998.03;5073190;28;20232;-86
2023/07/13 00:45:43;;;;;;;14.45;7.90;;;;;;;28.32;56.66;98991.44;5073214;28;20181;-86
2023/07/13 00:48:09;;;;;;;11.02;7.05;;;;;;;28.38;56.22;98996.84;5073214;28;20172;-86
2023/07/13 00:50:34;;;;;;;12.20;6.85;;;;;;;28.35;56.90;99002.66;5072179;28;20185;-86
2023/07/13 00:53:00;;;;;;;11.13;6.53;;;;;;;28.30;57.31;98994.31;5054250;28;20177;-86
2023/07/13 00:55:26;;;;;;;9.10;5.88;;;;;;;28.24;57.10;98992.41;5052137;28;20193;-86
2023/07/13 00:57:52;;;;;;;14.10;5.75;;;;;;;28.17;57.61;98988.00;5052175;28;20181;-86
2023/07/13 01:00:19;;;;;;;11.15;6.32;;;;;;;28.11;57.58;98984.22;5059751;28;20204;-86
2023/07/13 01:02:46;;;;;;;10.57;6.40;;;;;;;28.07;57.48;98991.03;5072010;28;20571;-86
2023/07/13 01:05:21;;;;;;;10.55;6.75;;;;;;;28.01;57.48;98991.78;5072813;28;20192;-86
2023/07/13 01:07:49;;;;;;;9.98;6.40;;;;;;;27.97;57.81;98994.03;5077227;28;20161;-86
2023/07/13 01:10:15;;;;;;;10.07;6.78;;;;;;;27.97;57.27;98990.50;5075909;28;20601;-85
2023/07/13 01:12:41;;;;;;;12.65;6.05;;;;;;;27.94;57.81;98994.41;5077000;28;20173;-86
2023/07/13 01:15:37;;;;;;;10.55;6.25;;;;;;;27.86;58.20;98994.56;5076962;28;20185;-86
2023/07/13 01:18:04;;;;;;;15.82;7.57;;;;;;;27.84;57.67;98993.09;5076741;28;20185;-86
2023/07/13 01:20:30;;;;;;;10.98;6.70;;;;;;;27.77;58.32;98984.97;5076816;28;20177;-86
2023/07/13 01:22:55;;;;;;;12.43;7.03;;;;;;;27.78;58.16;98988.47;5076601;28;20731;-86
2023/07/13 01:25:21;;;;;;;12.68;6.57;;;;;;;27.72;59.08;98989.25;5076589;28;20630;-86
2023/07/13 01:27:46;;;;;;;13.90;6.50;;;;;;;27.70;58.66;98985.94;5076718;28;20180;-86
2023/07/13 01:30:12;;;;;;;14.65;7.03;;;;;;;27.68;58.57;98982.56;5071345;28;20181;-86
2023/07/13 01:32:41;;;;;;;11.25;7.03;;;;;;;27.74;58.28;98992.59;5055628;28;20238;-86
2023/07/13 01:35:07;;;;;;;11.38;7.00;;;;;;;27.68;58.55;98987.97;5056531;28;20234;-86
2023/07/13 01:37:33;;;;;;;11.00;6.72;;;;;;;27.70;58.50;98973.25;5056543;28;20244;-85
2023/07/13 01:39:59;;;;;;;10.63;6.35;;;;;;;27.70;58.19;98975.16;5069477;28;20275;-86
2023/07/13 01:42:24;;;;;;;11.02;6.93;;;;;;;27.65;57.88;98980.25;5076316;28;20630;-86
2023/07/13 01:44:50;;;;;;;12.70;6.88;;;;;;;27.66;58.31;98976.53;5076206;28;20192;-86
2023/07/13 01:47:15;;;;;;;13.85;6.72;;;;;;;27.57;58.63;98973.16;5076328;28;20170;-85
2023/07/13 01:49:41;;;;;;;9.27;5.93;;;;;;;27.46;58.85;98976.38;5076285;28;20604;-85
2023/07/13 01:52:06;;;;;;;13.73;8.27;;;;;;;27.35;59.31;98977.69;5075303;28;20169;-85
2023/07/13 01:54:33;;;;;;;13.23;7.32;;;;;;;27.31;59.36;98976.38;5075146;28;20200;-85
2023/07/13 01:56:59;;;;;;;16.65;7.32;;;;;;;27.22;59.97;98977.53;5075847;28;20227;-85
2023/07/13 01:59:25;;;;;;;13.68;8.02;;;;;;;27.21;59.78;98973.16;5076134;28;20634;-86
2023/07/13 02:01:50;;;;;;;12.35;7.60;;;;;;;27.18;59.87;98975.38;5075942;28;20267;-86
2023/07/13 02:04:15;;;;;;;16.42;9.05;;;;;;;27.18;59.92;98980.78;5075102;28;20173;-86
2023/07/13 02:06:41;;;;;;;17.85;8.85;;;;;;;27.14;60.03;98983.03;5075819;28;20615;-85
2023/07/13 02:09:06;;;;;;;13.10;8.25;;;;;;;27.14;59.97;98988.41;5075941;28;20256;-85
2023/07/13 02:11:33;;;;;;;13.10;8.48;;;;;;;27.15;59.87;98992.75;5074910;28;20169;-85
2023/07/13 02:14:02;;;;;;;11.73;7.20;;;;;;;27.17;60.50;98988.03;5075675;28;20235;-86
2023/07/13 02:16:29;;;;;;;13.30;7.55;;;;;;;27.15;60.60;99006.22;5075579;28;20177;-86
2023/07/13 02:18:55;;;;;;;13.02;7.68;;;;;;;27.06;60.79;99004.66;5074373;28;20173;-85
2023/07/13 02:21:21;;;;;;;11.73;7.43;;;;;;;27.02;60.64;99008.75;5075479;28;20205;-85
2023/07/13 02:23:47;;;;;;;14.37;8.47;;;;;;;27.03;60.80;99005.03;5075950;28;20187;-85
2023/07/13 02:26:13;;;;;;;11.90;7.57;;;;;;;26.98;61.15;99002.06;5075919;28;20601;-85
2023/07/13 02:28:38;;;;;;;14.82;7.43;;;;;;;27.02;61.08;99014.13;5075587;28;20214;-85
2023/07/13 02:31:10;;;;;;;11.80;8.00;;;;;;;27.01;60.88;99012.47;5075373;28;20187;-85
2023/07/13 02:33:35;;;;;;;12.60;8.60;;;;;;;26.94;60.72;99016.91;5075572;28;20240;-85
2023/07/13 02:36:01;;;;;;;14.93;8.30;;;;;;;26.84;61.72;99006.44;5075077;28;20199;-85
2023/07/13 02:38:27;;;;;;;20.25;8.45;;;;;;;26.75;61.52;99004.88;5075382;28;20642;-85
2023/07/13 02:40:53;;;;;;;13.23;7.90;;;;;;;26.67;62.42;99009.50;5075344;28;20176;-85
2023/07/13 02:43:18;;;;;;;14.27;8.03;;;;;;;26.64;62.83;99007.19;5074321;28;20614;-85
2023/07/13 02:45:45;;;;;;;13.73;7.65;;;;;;;26.57;63.37;99012.44;5075233;28;20184;-85
2023/07/13 02:48:10;;;;;;;13.18;8.75;;;;;;;26.55;63.64;99019.03;5075088;28;20189;-85
2023/07/13 02:50:36;;;;;;;15.73;7.20;;;;;;;26.55;63.14;99013.66;5075141;28;20173;-85
2023/07/13 02:53:01;;;;;;;14.90;8.23;;;;;;;26.57;62.98;99020.50;5075033;28;20222;-85
2023/07/13 02:55:27;;;;;;;13.77;7.93;;;;;;;26.52;63.25;99022.91;5075083;28;20169;-85
2023/07/13 02:57:54;;;;;;;15.77;8.33;;;;;;;26.53;63.13;99024.59;5074978;28;20310;-85
2023/07/13 03:00:19;;;;;;;15.57;8.43;;;;;;;26.52;63.15;99022.91;5075258;28;20235;-85
2023/07/13 03:02:45;;;;;;;17.27;8.37;;;;;;;26.48;63.53;99018.94;5074657;28;20608;-85
2023/07/13 03:05:12;;;;;;;17.43;8.93;;;;;;;26.49;63.37;99017.09;5074885;28;20564;-85
2023/07/13 03:07:38;;;;;;;12.63;8.10;;;;;;;26.43;63.58;99017.81;5074851;28;20622;-85
2023/07/13 03:10:04;;;;;;;18.20;8.63;;;;;;;26.41;63.69;99025.25;5074824;28;20179;-85
2023/07/13 03:12:29;;;;;;;14.80;8.60;;;;;;;26.36;63.80;99019.59;5074712;28;20587;-86
2023/07/13 03:14:55;;;;;;;12.97;7.90;;;;;;;26.39;63.86;99020.03;5073743;28;20211;-85
2023/07/13 03:17:20;;;;;;;14.90;8.40;;;;;;;26.42;63.49;99022.34;5074463;28;20547;-85
2023/07/13 03:19:49;;;;;;;15.90;8.67;;;;;;;26.44;63.24;99024.88;5075108;28;20177;-85
2023/07/13 03:22:16;;;;;;;18.27;8.87;;;;;;;26.24;63.79;99029.94;5073405;28;20243;-85
2023/07/13 03:24:41;;;;;;;13.68;8.45;;;;;;;26.27;63.87;99032.25;5074372;28;20310;-85
2023/07/13 03:27:07;;;;;;;17.00;9.80;;;;;;;26.37;63.14;99032.00;5074497;28;20169;-85
2023/07/13 03:29:33;;;;;;;16.90;10.07;;;;;;;26.40;62.90;99034.31;5073232;28;20169;-85
2023/07/13 03:31:58;;;;;;;17.30;8.37;;;;;;;26.41;62.90;99030.63;5074302;28;20165;-85
2023/07/13 03:34:24;;;;;;;15.37;8.83;;;;;;;26.41;63.17;99036.84;5074366;28;20169;-85
2023/07/13 03:36:49;;;;;;;14.37;9.53;;;;;;;26.43;63.42;99033.94;5073152;28;20706;-85
2023/07/13 03:39:15;;;;;;;14.57;8.63;;;;;;;26.45;63.06;99034.59;5073244;28;20181;-85
2023/07/13 03:41:40;;;;;;;15.80;8.57;;;;;;;26.48;63.18;99031.53;5073972;28;20201;-85
2023/07/13 03:44:06;;;;;;;15.63;8.13;;;;;;;26.46;63.27;99031.75;5074356;28;20179;-85
2023/07/13 03:46:33;;;;;;;13.37;8.50;;;;;;;26.43;63.69;99028.56;5073148;28;20169;-85
2023/07/13 03:48:59;;;;;;;15.07;7.97;;;;;;;26.44;64.08;99031.06;5073032;28;20183;-85
2023/07/13 03:51:24;;;;;;;15.80;9.30;;;;;;;26.48;64.06;99031.53;5073980;28;20169;-85
2023/07/13 03:53:50;;;;;;;14.73;7.40;;;;;;;26.53;64.27;99029.13;5072997;28;20173;-85
2023/07/13 03:56:17;;;;;;;16.77;8.67;;;;;;;26.56;64.98;99036.84;5074151;28;20165;-86
2023/07/13 03:58:45;;;;;;;14.55;8.88;;;;;;;26.59;65.16;99033.78;5074127;28;20176;-85
2023/07/13 04:01:12;;;;;;;14.00;9.07;;;;;;;26.62;64.93;99033.41;5073524;28;20193;-85
2023/07/13 04:03:38;;;;;;;16.13;9.23;;;;;;;26.70;64.38;99038.72;5074002;28;20170;-85
2023/07/13 04:06:05;;;;;;;15.00;8.90;;;;;;;26.71;64.28;99034.97;5073544;28;20247;-85
2023/07/13 04:08:33;;;;;;;14.52;9.07;;;;;;;26.76;64.08;99043.31;5073674;28;20242;-85
2023/07/13 04:11:01;;;;;;;12.82;7.93;;;;;;;26.72;64.17;99042.88;5073591;28;20219;-85
2023/07/13 04:13:27;;;;;;;17.02;9.02;;;;;;;26.74;64.21;99043.53;5073623;28;20177;-85
2023/07/13 04:15:53;;;;;;;15.70;9.00;;;;;;;26.78;64.39;99042.16;5073562;28;20177;-85
2023/07/13 04:18:19;;;;;;;15.95;9.05;;;;;;;26.84;64.67;99037.88;5073529;28;20285;-85
2023/07/13 04:20:46;;;;;;;13.77;9.30;;;;;;;26.89;64.55;99040.03;5072347;28;20639;-85
2023/07/13 04:23:13;;;;;;;18.47;9.57;;;;;;;26.95;64.56;99045.50;5059839;28;20292;-86
2023/07/13 04:25:44;;;;;;;17.25;9.60;;;;;;;27.01;64.75;99039.38;5052161;28;20552;-85
2023/07/13 04:28:10;;;;;;;15.33;9.27;;;;;;;27.01;65.13;99042.06;5052915;28;20246;-85
2023/07/13 04:30:37;;;;;;;15.43;9.93;;;;;;;27.11;64.92;99045.28;5053935;28;20227;-85
2023/07/13 04:33:04;;;;;;;16.02;10.27;;;;;;;27.11;65.09;99050.69;5056218;28;20592;-85
2023/07/13 04:35:31;;;;;;;20.20;10.15;;;;;;;27.17;65.16;99046.41;5053945;28;20635;-85
2023/07/13 04:37:57;;;;;;;12.27;8.73;;;;;;;27.30;64.73;99047.41;5053299;28;20645;-85
2023/07/13 04:40:22;;;;;;;15.55;9.73;;;;;;;27.36;64.64;99043.94;5053637;28;20174;-85
2023/07/13 04:42:47;;;;;;;18.17;9.98;;;;;;;27.37;64.63;99042.91;5073202;28;20197;-85
2023/07/13 04:45:14;;;;;;;14.07;9.07;;;;;;;27.51;64.27;99043.94;5073225;28;20259;-85
2023/07/13 04:47:40;;;;;;;14.65;9.18;;;;;;;27.52;64.46;99042.91;5072130;28;20618;-86
2023/07/13 04:50:07;;;;;;;14.00;9.50;;;;;;;27.65;64.21;99047.59;5073184;28;20207;-85
2023/07/13 04:52:33;;;;;;;15.73;9.00;;;;;;;27.69;63.79;99043.50;5073097;28;20209;-86
2023/07/13 04:55:00;;;;;;;17.63;9.23;;;;;;;27.84;63.48;99055.03;5073160;28;20238;-86
2023/07/13 04:57:26;;;;;;;16.55;9.48;;;;;;;27.92;63.45;99060.31;5072182;28;20187;-85
2023/07/13 04:59:51;;;;;;;15.77;9.48;;;;;;;27.94;63.10;99058.25;5072036;28;20203;-86
2023/07/13 05:02:17;;;;;;;17.42;10.02;;;;;;;28.12;62.92;99065.94;5072036;28;20240;-86
2023/07/13 05:04:46;;;;;;;11.77;8.15;;;;;;;28.31;62.20;99067.94;5072968;28;20192;-86
2023/07/13 05:07:12;;;;;;;14.63;8.90;;;;;;;28.40;61.90;99070.31;5073010;28;20211;-86
2023/07/13 05:09:37;;;;;;;16.00;9.32;;;;;;;28.53;61.59;99070.41;5072775;28;20205;-86
2023/07/13 05:12:03;;;;;;;14.43;9.27;;;;;;;28.68;61.13;99074.88;5073294;28;20705;-86
2023/07/13 05:14:28;;;;;;;12.25;8.82;;;;;;;28.82;60.27;99066.69;5073093;28;20526;-86
2023/07/13 05:16:54;;;;;;;15.45;9.18;;;;;;;28.95;60.20;99069.47;5072979;28;20235;-86
2023/07/13 05:19:19;;;;;;;14.43;9.07;;;;;;;29.11;60.13;99069.09;5071833;28;20189;-86
2023/07/13 05:21:44;;;;;;;13.45;8.55;;;;;;;29.26;58.81;99055.50;5072745;28;20267;-86
2023/07/13 05:24:10;;;;;;;17.48;7.97;;;;;;;29.51;57.42;99061.19;5073178;28;20177;-86
2023/07/13 05:26:35;;;;;;;15.80;8.05;;;;;;;29.77;56.63;99062.09;5073146;28;20175;-86
2023/07/13 05:29:00;;;;;;;13.02;8.43;;;;;;;30.01;55.98;99065.28;5071682;28;20241;-86
2023/07/13 05:31:26;;;;;;;12.05;7.68;;;;;;;30.28;55.43;99067.81;5071837;28;20536;-86
2023/07/13 05:33:51;;;;;;;11.40;7.47;;;;;;;30.49;54.19;99069.50;5072804;28;20247;-86
2023/07/13 05:36:17;;;;;;;12.50;7.55;;;;;;;30.74;53.88;99069.69;5072793;28;20184;-86
2023/07/13 05:38:42;;;;;;;13.45;8.27;;;;;;;30.99;52.64;99066.13;5072991;28;20577;-86
2023/07/13 05:41:07;;;;;;;15.55;7.88;;;;;;;31.23;51.80;99064.56;5072887;28;20177;-86
2023/07/13 05:43:34;;;;;;;10.70;7.28;;;;;;;31.26;50.98;99066.84;5072494;28;20199;-86
2023/07/13 05:45:59;;;;;;;13.98;8.82;;;;;;;31.40;52.15;99065.75;5073223;28;20173;-86
2023/07/13 05:48:25;;;;;;;11.93;7.53;;;;;;;31.56;51.87;99068.00;5071684;28;20204;-87
2023/07/13 05:50:50;;;;;;;12.43;7.30;;;;;;;31.69;51.60;99071.66;5072807;28;20230;-86
2023/07/13 05:53:15;;;;;;;11.40;7.28;;;;;;;31.76;51.66;99075.19;5076053;28;20526;-86
2023/07/13 05:55:50;;;;;;;14.20;8.07;;;;;;;31.83;50.51;99063.25;5075292;28;20547;-86
2023/07/13 05:58:17;;;;;;;11.95;7.65;;;;;;;31.86;50.37;99068.25;5076431;28;20222;-86
2023/07/13 06:00:42;;;;;;;14.50;7.70;;;;;;;31.88;50.32;99068.84;5075166;28;20180;-86
2023/07/13 06:03:08;;;;;;;17.52;7.70;;;;;;;31.93;49.90;99066.31;5075066;28;20296;-87
2023/07/13 06:05:35;;;;;;;11.88;7.88;;;;;;;31.92;49.68;99061.91;5075445;28;20263;-87
2023/07/13 06:08:01;;;;;;;13.00;8.13;;;;;;;31.99;49.41;99062.75;5076003;28;20196;-87
2023/07/13 06:10:26;;;;;;;10.30;7.30;;;;;;;32.13;50.15;99063.47;5076457;28;20207;-87
2023/07/13 06:12:52;;;;;;;15.13;8.90;;;;;;;32.05;49.68;99067.28;5074975;28;20263;-87
2023/07/13 06:15:17;;;;;;;14.30;7.45;;;;;;;32.22;49.46;99068.41;5075885;28;20192;-87
2023/07/13 06:17:43;;;;;;;13.38;7.55;;;;;;;32.13;49.49;99067.00;5076364;28;20176;-88
2023/07/13 06:20:09;;;;;;;10.60;6.40;;;;;;;32.21;47.95;99071.34;5074838;28;20180;-88
2023/07/13 06:22:34;;;;;;;11.50;5.95;;;;;;;32.27;45.89;99072.34;5076343;28;20204;-88
2023/07/13 06:25:00;;;;;;;10.73;5.63;;;;;;;32.41;46.23;99073.91;5074845;28;20245;-88
2023/07/13 06:27:25;;;;;;;15.25;6.65;;;;;;;32.61;46.06;99071.84;5074977;28;20173;-88
2023/07/13 06:29:51;;;;;;;9.88;6.10;;;;;;;32.67;44.88;99065.53;5074882;28;20191;-87
2023/07/13 06:32:17;;;;;;;13.07;6.60;;;;;;;32.87;45.76;99059.91;5075619;28;20179;-88
2023/07/13 06:34:42;;;;;;;8.18;5.88;;;;;;;32.85;44.91;99065.56;5074894;28;20600;-88
2023/07/13 06:37:09;;;;;;;10.60;5.82;;;;;;;33.11;44.46;99067.19;5075439;28;20248;-88
2023/07/13 06:39:34;;;;;;;9.85;5.72;;;;;;;33.14;43.61;99064.84;5074591;28;20642;-88
2023/07/13 06:42:00;;;;;;;11.00;5.72;;;;;;;33.42;43.84;99054.25;5075586;28;20193;-88
2023/07/13 06:44:25;;;;;;;12.57;6.35;;;;;;;33.64;43.35;99051.06;5074070;28;20238;-88
2023/07/13 06:46:51;;;;;;;10.10;6.88;;;;;;;33.87;43.74;99051.13;5074561;28;20184;-88
2023/07/13 06:49:16;;;;;;;9.73;6.18;;;;;;;33.99;42.36;99046.53;5074269;28;20177;-88
2023/07/13 06:51:42;;;;;;;13.85;5.75;;;;;;;34.06;42.58;99046.47;5074413;28;20242;-88
2023/07/13 06:54:07;;;;;;;12.88;6.93;;;;;;;34.27;42.68;99044.03;5074139;28;20631;-88
2023/07/13 06:56:32;;;;;;;11.25;5.85;;;;;;;34.50;42.48;99044.06;5074128;28;20176;-88
2023/07/13 06:58:58;;;;;;;12.98;6.50;;;;;;;34.45;40.66;99043.94;5074373;28;20177;-88
2023/07/13 07:01:23;;;;;;;10.02;6.22;;;;;;;34.71;42.33;99042.66;5074743;28;20607;-89
2023/07/13 07:03:49;;;;;;;12.05;6.30;;;;;;;35.08;41.59;99043.22;5074250;28;20173;-89
2023/07/13 07:06:20;;;;;;;9.07;5.35;;;;;;;35.27;40.21;99035.72;5074825;28;20173;-89
2023/07/13 07:08:46;;;;;;;8.82;5.68;;;;;;;35.53;38.93;99033.28;5074766;28;20176;-89
2023/07/13 07:11:18;;;;;;;10.35;5.53;;;;;;;35.84;39.76;99039.28;5074745;28;20185;-88
2023/07/13 07:13:44;;;;;;;9.75;5.38;;;;;;;36.08;37.15;99044.41;5073726;28;20544;-89
2023/07/13 07:16:09;;;;;;;9.10;4.85;;;;;;;36.09;36.11;99045.19;5074647;28;20181;-90
2023/07/13 07:18:35;;;;;;;11.23;5.70;;;;;;;36.17;36.01;99042.91;5074455;28;20518;-88
2023/07/13 07:21:01;;;;;;;9.68;5.05;;;;;;;36.51;35.80;99043.75;5074404;28;20207;-89
2023/07/13 07:23:27;;;;;;;9.80;5.00;;;;;;;36.73;35.98;99039.16;5074405;28;20240;-90
2023/07/13 07:25:52;;;;;;;8.00;5.03;;;;;;;37.00;35.55;99030.28;5074822;28;20255;-90
2023/07/13 07:28:18;;;;;;;7.35;4.72;;;;;;;37.19;34.68;99034.31;5074388;28;20211;-90
2023/07/13 07:30:45;;;;;;;10.77;5.10;;;;;;;37.26;35.24;99030.34;5074327;28;20626;-89
2023/07/13 07:33:10;;;;;;;10.18;5.22;;;;;;;37.44;34.70;99034.66;5074331;28;20195;-90
2023/07/13 07:35:36;;;;;;;7.82;4.72;;;;;;;37.47;35.71;99042.38;5074304;28;20623;-89
2023/07/13 07:38:01;;;;;;;7.53;4.63;;;;;;;37.77;35.54;99037.19;5074599;28;20189;-89
2023/07/13 07:40:27;;;;;;;9.52;5.65;;;;;;;37.98;35.93;99035.50;5074131;28;20259;-89
2023/07/13 07:42:52;;;;;;;9.88;5.30;;;;;;;38.20;34.18;99029.97;5072971;28;20208;-89
2023/07/13 07:45:19;;;;;;;11.52;6.57;;;;;;;38.02;34.23;99026.53;5073178;28;20192;-90
2023/07/13 07:47:45;;;;;;;8.40;5.00;;;;;;;38.06;33.24;99027.66;5073674;28;20523;-89
2023/07/13 07:50:13;;;;;;;9.02;5.10;;;;;;;38.27;35.71;99031.38;5074096;28;20653;-90
2023/07/13 07:52:40;;;;;;;6.75;4.72;;;;;;;38.44;33.05;99023.06;5085717;28;20220;-90
2023/07/13 07:55:07;;;;;;;7.32;4.95;;;;;;;38.67;34.24;99025.41;5086762;28;20177;-90
2023/07/13 07:57:34;;;;;;;7.45;4.88;;;;;;;38.82;34.05;99024.66;5074576;28;20207;-89
2023/07/13 08:00:01;;;;;;;6.82;4.20;;;;;;;38.71;33.06;99029.25;5078620;28;20175;-89
2023/07/13 08:02:28;;;;;;;7.13;4.60;;;;;;;38.91;33.41;99025.84;5080145;28;20201;-91
2023/07/13 08:04:54;;;;;;;10.32;4.60;;;;;;;38.90;31.68;99030.47;5077654;28;20262;-90
2023/07/13 08:07:21;;;;;;;9.40;4.75;;;;;;;38.60;34.06;99022.88;5092202;28;20630;-89
2023/07/13 08:09:47;;;;;;;10.50;5.10;;;;;;;39.02;31.78;99022.84;5074653;28;20550;-90
2023/07/13 08:12:14;;;;;;;8.55;4.15;;;;;;;39.25;32.80;99021.63;5076338;28;20181;-88
2023/07/13 08:14:41;;;;;;;7.57;3.92;;;;;;;39.38;31.49;99031.25;5052722;28;20178;-90
2023/07/13 08:17:08;;;;;;;8.48;4.22;;;;;;;39.57;31.98;99019.50;5054058;28;20174;-90
2023/07/13 08:19:35;;;;;;;7.05;4.53;;;;;;;39.67;33.23;99018.75;5068321;28;20554;-90
2023/07/13 08:22:01;;;;;;;9.30;4.82;;;;;;;39.68;31.31;99018.47;5073299;28;20209;-90
2023/07/13 08:24:28;;;;;;;7.82;4.70;;;;;;;39.95;32.25;99018.22;5071755;28;20259;-90
2023/07/13 08:27:01;;;;;;;9.90;4.65;;;;;;;39.79;32.08;99022.03;5073373;28;20200;-89
2023/07/13 08:29:27;;;;;;;8.85;4.90;;;;;;;40.02;31.94;99016.03;5073425;28;20180;-89
2023/07/13 08:31:54;;;;;;;9.90;5.28;;;;;;;40.16;31.81;99011.66;5073533;28;20184;-89
2023/07/13 08:34:21;;;;;;;10.25;4.82;;;;;;;40.20;30.63;99015.50;5073567;28;20196;-89
2023/07/13 08:36:47;;;;;;;6.63;4.43;;;;;;;40.38;31.95;99014.97;5073254;28;20184;-90
2023/07/13 08:39:14;;;;;;;7.30;4.63;;;;;;;40.42;30.67;99012.47;5072333;28;20254;-89
2023/07/13 08:41:41;;;;;;;14.45;5.07;;;;;;;40.61;31.28;99015.50;5073201;28;20744;-89
2023/07/13 08:44:27;;;;;;;7.32;4.82;;;;;;;40.55;31.40;99019.34;5073463;28;20173;-91
2023/07/13 08:46:57;;;;;;;8.27;4.53;;;;;;;40.35;32.81;99012.75;5073537;28;20162;-89
2023/07/13 08:49:26;;;;;;;8.93;5.20;;;;;;;40.37;31.43;99018.78;5053079;28;20643;-89
2023/07/13 08:52:22;;;;;;;9.68;4.22;;;;;;;40.55;31.46;99014.66;5035676;28;20181;-89
2023/07/13 08:54:51;;;;;;;8.05;3.97;;;;;;;40.52;29.93;99015.22;5052068;28;20173;-90
2023/07/13 08:57:24;;;;;;;7.60;4.68;;;;;;;40.48;29.68;99012.22;5053052;28;20182;-90
2023/07/13 08:59:51;;;;;;;8.32;4.45;;;;;;;40.62;30.64;99014.41;5067238;28;20189;-89
2023/07/13 09:02:39;;;;;;;8.80;4.00;;;;;;;40.68;30.28;99014.09;5073230;28;20200;-89
2023/07/13 09:05:17;;;;;;;7.75;4.68;;;;;;;41.00;30.17;99016.50;5071789;28;20282;-89
2023/07/13 09:08:19;;;;;;;6.53;3.70;;;;;;;41.20;30.35;99016.41;5072036;28;20620;-89
2023/07/13 09:10:51;;;;;;;7.95;4.10;;;;;;;41.04;29.91;99017.59;5065608;28;20181;-89
2023/07/13 09:13:53;;;;;;;7.07;4.25;;;;;;;41.25;29.35;99010.06;5075492;28;20658;-89
2023/07/13 09:16:21;;;;;;;8.32;4.60;;;;;;;41.51;29.98;98995.09;5069505;28;20184;-90
2023/07/13 09:18:54;;;;;;;6.35;4.20;;;;;;;41.68;32.12;98990.84;5060689;28;20189;-89
2023/07/13 09:21:33;;;;;;;7.45;3.63;;;;;;;41.95;29.33;98986.81;5065718;28;20676;-89
2023/07/13 09:24:24;;;;;;;6.13;4.10;;;;;;;41.94;27.98;98987.91;5071273;28;20631;-89
2023/07/13 09:26:51;;;;;;;19.35;4.70;;;;;;;42.05;29.77;98983.97;5076321;28;20526;-89
2023/07/13 09:29:29;;;;;;;6.28;4.15;;;;;;;42.13;28.89;98973.19;5084709;28;20211;-88
2023/07/13 09:31:58;;;;;;;8.10;4.30;;;;;;;42.16;27.54;98975.38;5080326;28;20183;-89
2023/07/13 09:34:25;;;;;;;7.35;4.35;;;;;;;42.30;28.45;98972.72;5058755;28;20285;-89
2023/07/13 09:36:52;;;;;;;7.30;4.28;;;;;;;42.41;27.53;98974.28;5064632;28;20227;-89
2023/07/13 09:39:27;;;;;;;5.00;3.50;;;;;;;42.53;26.89;98969.22;5062115;28;20186;-88
2023/07/13 09:42:21;;;;;;;7.05;3.70;;;;;;;42.68;26.05;98960.78;5085203;28;20192;-89
2023/07/13 09:45:05;;;;;;;6.88;3.22;;;;;;;42.79;28.13;98959.56;5092225;28;20187;-90
2023/07/13 09:47:39;;;;;;;7.00;4.30;;;;;;;42.88;28.27;98953.34;5081619;28;20175;-89
2023/07/13 09:50:16;;;;;;;5.93;3.40;;;;;;;43.00;26.91;98951.03;5084176;28;20191;-89
2023/07/13 09:52:51;;;;;;;7.57;3.35;;;;;;;43.03;25.51;98950.44;5065633;28;20173;-88
2023/07/13 09:55:39;;;;;;;6.30;2.97;;;;;;;42.79;23.43;98951.28;5076423;28;20256;-88
2023/07/13 09:58:14;;;;;;;6.60;3.10;;;;;;;42.74;25.62;98940.28;5077742;28;20194;-89
2023/07/13 10:00:43;;;;;;;9.68;3.25;;;;;;;42.72;26.36;98939.75;5078415;28;20188;-88
2023/07/13 10:03:54;;;;;;;5.57;3.20;;;;;;;42.74;26.10;98932.00;5056062;28;20200;-88
2023/07/13 10:06:22;;;;;;;6.53;3.08;;;;;;;43.02;25.28;98932.25;5055059;28;20204;-89
2023/07/13 10:08:52;;;;;;;5.10;3.00;;;;;;;42.96;25.07;98928.72;5057617;28;20541;-88
2023/07/13 10:11:29;;;;;;;5.22;3.38;;;;;;;43.08;25.21;98925.56;5068650;28;20351;-89
2023/07/13 10:13:59;;;;;;;6.90;3.20;;;;;;;43.23;24.22;98917.03;5077588;28;20226;-88
2023/07/13 10:16:32;;;;;;;6.00;3.33;;;;;;;43.34;25.24;98910.28;5068300;28;20188;-89
2023/07/13 10:19:03;;;;;;;6.88;3.45;;;;;;;43.46;24.69;98907.88;5075997;28;20190;-88
2023/07/13 10:21:55;;;;;;;6.10;3.10;;;;;;;43.59;25.05;98901.59;5075798;28;20201;-89
2023/07/13 10:24:28;;;;;;;5.35;2.83;;;;;;;43.36;23.43;98894.25;5063930;28;20197;-89
2023/07/13 10:27:20;;;;;;;6.00;3.22;;;;;;;43.57;24.67;98892.81;5055570;28;20190;-89
2023/07/13 10:30:28;;;;;;;5.30;2.95;;;;;;;43.67;23.96;98884.34;5068684;28;20172;-87
2023/07/13 10:32:54;;;;;;;6.07;3.00;;;;;;;43.67;24.40;98887.09;5084161;28;20599;-89
2023/07/13 10:35:22;;;;;;;5.43;3.28;;;;;;;43.92;23.68;98881.16;5054370;28;20592;-88
2023/07/13 10:37:54;;;;;;;7.30;2.70;;;;;;;44.19;23.59;98880.41;5054007;28;20204;-89
2023/07/13 10:41:01;;;;;;;6.13;3.35;;;;;;;44.23;22.82;98880.63;5075372;28;20172;-88
2023/07/13 10:43:40;;;;;;;4.55;2.83;;;;;;;43.94;22.52;98884.47;5074843;28;20562;-88
2023/07/13 10:46:08;;;;;;;5.05;2.97;;;;;;;44.20;23.12;98882.06;5073204;28;20176;-88
2023/07/13 10:48:36;;;;;;;5.95;3.35;;;;;;;44.20;24.17;98865.47;5073258;28;20255;-88
2023/07/13 10:51:06;;;;;;;7.63;3.20;;;;;;;44.28;23.95;98869.47;5073324;28;20194;-88
2023/07/13 10:53:36;;;;;;;5.40;3.10;;;;;;;44.21;23.44;98869.06;5073426;28;20173;-86
2023/07/13 10:56:18;;;;;;;7.47;3.78;;;;;;;44.24;23.71;98872.00;5072687;28;20180;-87
2023/07/13 10:58:45;;;;;;;5.32;3.10;;;;;;;44.20;22.99;98868.25;5072251;28;20188;-88
2023/07/13 11:01:13;;;;;;;6.72;3.60;;;;;;;44.35;22.29;98872.63;5074047;28;20172;-88
2023/07/13 11:03:59;;;;;;;4.88;2.97;;;;;;;44.52;24.14;98870.94;5075538;28;20172;-87
2023/07/13 11:06:33;;;;;;;5.57;3.28;;;;;;;44.41;23.30;98871.41;5075834;28;20164;-87
2023/07/13 11:09:17;;;;;;;4.85;2.83;;;;;;;44.51;22.47;98865.69;5073930;28;20584;-88
2023/07/13 11:11:43;;;;;;;6.38;2.75;;;;;;;44.49;23.97;98862.44;5073912;28;20169;-88
2023/07/13 11:14:29;;;;;;;5.85;3.30;;;;;;;44.91;22.48;98859.31;5075236;28;20247;-87
2023/07/13 11:16:55;;;;;;;7.43;3.28;;;;;;;44.96;21.10;98850.09;5074977;28;20176;-88
2023/07/13 11:19:21;;;;;;;7.47;2.97;;;;;;;44.89;21.39;98849.69;5073716;28;20176;-88
2023/07/13 11:22:05;;;;;;;5.07;2.95;;;;;;;45.05;22.07;98854.56;5074536;28;20243;-88
2023/07/13 11:25:01;;;;;;;4.03;2.55;;;;;;;45.03;22.26;98851.28;5073782;28;20245;-87
2023/07/13 11:27:43;;;;;;;4.78;2.90;;;;;;;45.06;21.80;98858.97;5074541;28;20160;-87
2023/07/13 11:30:08;;;;;;;5.25;3.10;;;;;;;45.23;21.69;98843.63;5073349;28;20568;-87
2023/07/13 11:32:35;;;;;;;7.13;3.08;;;;;;;44.37;21.35;98845.53;5073435;28;20693;-87
2023/07/13 11:35:00;;;;;;;7.22;3.70;;;;;;;44.40;21.42;98850.41;5073155;28;20626;-87
2023/07/13 11:37:26;;;;;;;6.30;3.55;;;;;;;44.33;21.56;98850.84;5074306;28;20187;-87